Main page
METAR-TAF:

METAR-TAF

Airports :

Oil platform

A12-cpp, Netherlands

latitude: 55-23-57N, longitude: 3-48-37E, elevation: 33 m

Current weather observation

The report was made 16 minutes ago, at 07:25 UTC
Wind 13 kt from the Northwest
Temperature 10°C
Humidity 66%
Pressure 989 hPa
Visibility 10 km or more

METAR: EHAK 050725Z AUTO 31013KT 9999 FEW021/// SCT028/// BKN032/// 10/04 Q0989

Time: 09:41 (07:41 UTC)


TAF: missing

Weather observations and forecasts of more than 4000 airports (METAR and TAF reports).

The available stations are represented by yellow and red dots on the map.

Hover mouse over dot to see the name of the station.

Then click to see weather observations and forecasts.

To change the map : click on the green buttons with a black cross to zoom in, on the green button with a dash to zoom out, or on the green arrows for adjacent maps.


METAR-TAF: